sensor_id;sensor_type;location;lat;lon;timestamp;P1;durP1;ratioP1;P2;durP2;ratioP2
39872;SDS011;63160;48.854;9.292;2023-04-15T00:00:39;5.53;;;4.07;;
39872;SDS011;63160;48.854;9.292;2023-04-15T00:03:06;4.63;;;3.72;;
39872;SDS011;63160;48.854;9.292;2023-04-15T00:05:34;4.90;;;3.95;;
39872;SDS011;63160;48.854;9.292;2023-04-15T00:08:00;4.93;;;4.53;;
39872;SDS011;63160;48.854;9.292;2023-04-15T00:10:27;4.93;;;3.75;;
39872;SDS011;63160;48.854;9.292;2023-04-15T00:12:54;6.90;;;4.38;;
39872;SDS011;63160;48.854;9.292;2023-04-15T00:15:21;7.40;;;4.78;;
39872;SDS011;63160;48.854;9.292;2023-04-15T00:17:49;6.72;;;3.97;;
39872;SDS011;63160;48.854;9.292;2023-04-15T00:20:17;9.75;;;6.57;;
39872;SDS011;63160;48.854;9.292;2023-04-15T00:22:44;6.65;;;4.60;;
39872;SDS011;63160;48.854;9.292;2023-04-15T00:25:11;4.45;;;3.80;;
39872;SDS011;63160;48.854;9.292;2023-04-15T00:27:38;7.22;;;4.13;;
39872;SDS011;63160;48.854;9.292;2023-04-15T00:30:06;8.10;;;4.50;;
39872;SDS011;63160;48.854;9.292;2023-04-15T00:32:33;4.22;;;3.67;;
39872;SDS011;63160;48.854;9.292;2023-04-15T00:35:00;6.70;;;4.80;;
39872;SDS011;63160;48.854;9.292;2023-04-15T00:37:27;4.82;;;4.00;;
39872;SDS011;63160;48.854;9.292;2023-04-15T00:39:54;6.75;;;3.75;;
39872;SDS011;63160;48.854;9.292;2023-04-15T00:42:21;6.70;;;4.43;;
39872;SDS011;63160;48.854;9.292;2023-04-15T00:44:49;7.25;;;4.03;;
39872;SDS011;63160;48.854;9.292;2023-04-15T00:47:16;6.40;;;4.15;;
39872;SDS011;63160;48.854;9.292;2023-04-15T00:49:44;5.55;;;3.92;;
39872;SDS011;63160;48.854;9.292;2023-04-15T00:52:11;7.18;;;3.95;;
39872;SDS011;63160;48.854;9.292;2023-04-15T00:54:38;5.88;;;3.85;;
39872;SDS011;63160;48.854;9.292;2023-04-15T00:57:05;5.28;;;3.67;;
39872;SDS011;63160;48.854;9.292;2023-04-15T00:59:32;9.52;;;5.65;;
39872;SDS011;63160;48.854;9.292;2023-04-15T01:01:59;5.55;;;4.28;;
39872;SDS011;63160;48.854;9.292;2023-04-15T01:04:27;6.53;;;4.80;;
39872;SDS011;63160;48.854;9.292;2023-04-15T01:06:54;7.43;;;4.82;;
39872;SDS011;63160;48.854;9.292;2023-04-15T01:09:21;6.18;;;4.10;;
39872;SDS011;63160;48.854;9.292;2023-04-15T01:11:49;6.28;;;5.60;;
39872;SDS011;63160;48.854;9.292;2023-04-15T01:14:16;7.75;;;4.00;;
39872;SDS011;63160;48.854;9.292;2023-04-15T01:16:43;4.75;;;4.05;;
39872;SDS011;63160;48.854;9.292;2023-04-15T01:19:10;7.50;;;5.90;;
39872;SDS011;63160;48.854;9.292;2023-04-15T01:21:39;6.45;;;4.97;;
39872;SDS011;63160;48.854;9.292;2023-04-15T01:24:08;7.63;;;4.63;;
39872;SDS011;63160;48.854;9.292;2023-04-15T01:26:38;5.45;;;4.18;;
39872;SDS011;63160;48.854;9.292;2023-04-15T01:29:06;6.28;;;4.40;;
39872;SDS011;63160;48.854;9.292;2023-04-15T01:31:33;7.82;;;4.55;;
39872;SDS011;63160;48.854;9.292;2023-04-15T01:34:00;4.95;;;3.55;;
39872;SDS011;63160;48.854;9.292;2023-04-15T01:36:27;6.78;;;3.85;;
39872;SDS011;63160;48.854;9.292;2023-04-15T01:38:55;6.35;;;4.65;;
39872;SDS011;63160;48.854;9.292;2023-04-15T01:41:26;5.45;;;3.88;;
39872;SDS011;63160;48.854;9.292;2023-04-15T01:43:53;4.00;;;3.60;;
39872;SDS011;63160;48.854;9.292;2023-04-15T01:46:20;6.45;;;4.45;;
39872;SDS011;63160;48.854;9.292;2023-04-15T01:48:47;5.78;;;3.55;;
39872;SDS011;63160;48.854;9.292;2023-04-15T01:51:14;5.80;;;4.43;;
39872;SDS011;63160;48.854;9.292;2023-04-15T01:53:41;6.60;;;4.20;;
39872;SDS011;63160;48.854;9.292;2023-04-15T01:56:07;5.75;;;4.95;;
39872;SDS011;63160;48.854;9.292;2023-04-15T01:58:34;7.25;;;4.47;;
39872;SDS011;63160;48.854;9.292;2023-04-15T02:01:01;5.20;;;4.13;;
39872;SDS011;63160;48.854;9.292;2023-04-15T02:03:30;4.68;;;3.67;;
39872;SDS011;63160;48.854;9.292;2023-04-15T02:05:57;6.75;;;3.88;;
39872;SDS011;63160;48.854;9.292;2023-04-15T02:08:24;7.47;;;4.20;;
39872;SDS011;63160;48.854;9.292;2023-04-15T02:10:50;6.40;;;4.40;;
39872;SDS011;63160;48.854;9.292;2023-04-15T02:13:18;5.88;;;4.10;;
39872;SDS011;63160;48.854;9.292;2023-04-15T02:15:48;6.63;;;4.63;;
39872;SDS011;63160;48.854;9.292;2023-04-15T02:18:17;5.15;;;4.07;;
39872;SDS011;63160;48.854;9.292;2023-04-15T02:20:44;8.00;;;4.13;;
39872;SDS011;63160;48.854;9.292;2023-04-15T02:23:12;5.13;;;4.10;;
39872;SDS011;63160;48.854;9.292;2023-04-15T02:25:42;6.60;;;5.70;;
39872;SDS011;63160;48.854;9.292;2023-04-15T02:28:19;5.82;;;4.38;;
39872;SDS011;63160;48.854;9.292;2023-04-15T02:30:47;6.90;;;4.63;;
39872;SDS011;63160;48.854;9.292;2023-04-15T02:33:19;4.90;;;4.28;;
39872;SDS011;63160;48.854;9.292;2023-04-15T02:35:46;5.90;;;4.20;;
39872;SDS011;63160;48.854;9.292;2023-04-15T02:38:13;5.18;;;4.57;;
39872;SDS011;63160;48.854;9.292;2023-04-15T02:40:42;6.10;;;4.28;;
39872;SDS011;63160;48.854;9.292;2023-04-15T02:43:09;5.20;;;4.57;;
39872;SDS011;63160;48.854;9.292;2023-04-15T02:45:36;7.13;;;4.22;;
39872;SDS011;63160;48.854;9.292;2023-04-15T02:48:03;7.25;;;4.20;;
39872;SDS011;63160;48.854;9.292;2023-04-15T02:50:32;7.47;;;4.90;;
39872;SDS011;63160;48.854;9.292;2023-04-15T02:52:59;5.13;;;3.75;;
39872;SDS011;63160;48.854;9.292;2023-04-15T02:55:27;5.70;;;4.47;;
39872;SDS011;63160;48.854;9.292;2023-04-15T02:57:54;8.52;;;4.70;;
39872;SDS011;63160;48.854;9.292;2023-04-15T03:00:22;4.88;;;4.05;;
39872;SDS011;63160;48.854;9.292;2023-04-15T03:02:50;4.45;;;3.97;;
39872;SDS011;63160;48.854;9.292;2023-04-15T03:05:22;4.93;;;4.40;;
39872;SDS011;63160;48.854;9.292;2023-04-15T03:07:51;5.80;;;5.30;;
39872;SDS011;63160;48.854;9.292;2023-04-15T03:10:19;4.68;;;4.13;;
39872;SDS011;63160;48.854;9.292;2023-04-15T03:12:47;5.25;;;3.65;;
39872;SDS011;63160;48.854;9.292;2023-04-15T03:15:17;8.02;;;5.68;;
39872;SDS011;63160;48.854;9.292;2023-04-15T03:17:47;5.32;;;4.07;;
39872;SDS011;63160;48.854;9.292;2023-04-15T03:20:15;6.05;;;4.00;;
39872;SDS011;63160;48.854;9.292;2023-04-15T03:22:42;6.90;;;4.15;;
39872;SDS011;63160;48.854;9.292;2023-04-15T03:25:09;7.90;;;4.85;;
39872;SDS011;63160;48.854;9.292;2023-04-15T03:27:37;5.15;;;4.05;;
39872;SDS011;63160;48.854;9.292;2023-04-15T03:30:04;5.72;;;4.60;;
39872;SDS011;63160;48.854;9.292;2023-04-15T03:32:34;7.30;;;4.55;;
39872;SDS011;63160;48.854;9.292;2023-04-15T03:35:01;5.57;;;4.18;;
39872;SDS011;63160;48.854;9.292;2023-04-15T03:37:28;5.75;;;4.50;;
39872;SDS011;63160;48.854;9.292;2023-04-15T03:39:55;6.38;;;4.65;;
39872;SDS011;63160;48.854;9.292;2023-04-15T03:42:22;6.05;;;4.22;;
39872;SDS011;63160;48.854;9.292;2023-04-15T03:44:48;6.13;;;4.22;;
39872;SDS011;63160;48.854;9.292;2023-04-15T03:47:15;4.88;;;4.03;;
39872;SDS011;63160;48.854;9.292;2023-04-15T03:49:42;6.85;;;5.55;;
39872;SDS011;63160;48.854;9.292;2023-04-15T03:52:08;3.70;;;3.38;;
39872;SDS011;63160;48.854;9.292;2023-04-15T03:54:35;5.63;;;4.03;;
39872;SDS011;63160;48.854;9.292;2023-04-15T03:57:02;4.50;;;4.07;;
39872;SDS011;63160;48.854;9.292;2023-04-15T03:59:28;5.55;;;4.75;;
39872;SDS011;63160;48.854;9.292;2023-04-15T04:01:55;7.50;;;4.38;;
39872;SDS011;63160;48.854;9.292;2023-04-15T04:04:22;3.80;;;3.15;;
39872;SDS011;63160;48.854;9.292;2023-04-15T04:06:49;6.63;;;3.72;;
39872;SDS011;63160;48.854;9.292;2023-04-15T04:09:16;6.85;;;4.38;;
39872;SDS011;63160;48.854;9.292;2023-04-15T04:11:43;5.90;;;3.97;;
39872;SDS011;63160;48.854;9.292;2023-04-15T04:14:10;5.97;;;5.10;;
39872;SDS011;63160;48.854;9.292;2023-04-15T04:16:37;6.15;;;5.13;;
39872;SDS011;63160;48.854;9.292;2023-04-15T04:19:04;5.35;;;4.18;;
39872;SDS011;63160;48.854;9.292;2023-04-15T04:21:31;6.63;;;5.82;;
39872;SDS011;63160;48.854;9.292;2023-04-15T04:23:59;7.03;;;4.95;;
39872;SDS011;63160;48.854;9.292;2023-04-15T04:26:26;6.85;;;4.47;;
39872;SDS011;63160;48.854;9.292;2023-04-15T04:28:53;5.13;;;4.00;;
39872;SDS011;63160;48.854;9.292;2023-04-15T04:31:19;5.88;;;5.00;;
39872;SDS011;63160;48.854;9.292;2023-04-15T04:33:46;4.65;;;4.20;;
39872;SDS011;63160;48.854;9.292;2023-04-15T04:36:13;5.15;;;3.92;;
39872;SDS011;63160;48.854;9.292;2023-04-15T04:38:40;5.15;;;4.07;;
39872;SDS011;63160;48.854;9.292;2023-04-15T04:41:06;5.43;;;4.38;;
39872;SDS011;63160;48.854;9.292;2023-04-15T04:43:33;4.88;;;4.22;;
39872;SDS011;63160;48.854;9.292;2023-04-15T04:46:00;6.38;;;4.32;;
39872;SDS011;63160;48.854;9.292;2023-04-15T04:48:27;8.32;;;4.40;;
39872;SDS011;63160;48.854;9.292;2023-04-15T04:50:54;6.05;;;4.03;;
39872;SDS011;63160;48.854;9.292;2023-04-15T04:53:21;6.70;;;4.43;;
39872;SDS011;63160;48.854;9.292;2023-04-15T04:55:47;6.22;;;5.07;;
39872;SDS011;63160;48.854;9.292;2023-04-15T04:58:14;5.80;;;5.13;;
39872;SDS011;63160;48.854;9.292;2023-04-15T05:00:41;6.85;;;5.53;;
39872;SDS011;63160;48.854;9.292;2023-04-15T05:03:08;6.53;;;4.65;;
39872;SDS011;63160;48.854;9.292;2023-04-15T05:05:35;7.85;;;3.85;;
39872;SDS011;63160;48.854;9.292;2023-04-15T05:08:04;8.00;;;4.10;;
39872;SDS011;63160;48.854;9.292;2023-04-15T05:10:31;9.02;;;4.10;;
39872;SDS011;63160;48.854;9.292;2023-04-15T05:12:58;6.32;;;4.32;;
39872;SDS011;63160;48.854;9.292;2023-04-15T05:15:25;6.72;;;3.97;;
39872;SDS011;63160;48.854;9.292;2023-04-15T05:17:51;7.25;;;5.00;;
39872;SDS011;63160;48.854;9.292;2023-04-15T05:20:18;7.72;;;3.42;;
39872;SDS011;63160;48.854;9.292;2023-04-15T05:22:45;4.53;;;4.07;;
39872;SDS011;63160;48.854;9.292;2023-04-15T05:25:12;7.53;;;3.88;;
39872;SDS011;63160;48.854;9.292;2023-04-15T05:27:39;4.43;;;4.03;;
39872;SDS011;63160;48.854;9.292;2023-04-15T05:30:06;7.03;;;4.50;;
39872;SDS011;63160;48.854;9.292;2023-04-15T05:32:34;6.28;;;4.68;;
39872;SDS011;63160;48.854;9.292;2023-04-15T05:35:01;5.45;;;4.32;;
39872;SDS011;63160;48.854;9.292;2023-04-15T05:37:27;6.53;;;5.00;;
39872;SDS011;63160;48.854;9.292;2023-04-15T05:39:54;5.60;;;4.72;;
39872;SDS011;63160;48.854;9.292;2023-04-15T05:42:22;5.63;;;3.97;;
39872;SDS011;63160;48.854;9.292;2023-04-15T05:44:48;6.75;;;4.80;;
39872;SDS011;63160;48.854;9.292;2023-04-15T05:47:15;4.95;;;4.18;;
39872;SDS011;63160;48.854;9.292;2023-04-15T05:49:42;6.47;;;4.13;;
39872;SDS011;63160;48.854;9.292;2023-04-15T05:52:09;5.93;;;4.20;;
39872;SDS011;63160;48.854;9.292;2023-04-15T05:54:36;11.63;;;4.97;;
39872;SDS011;63160;48.854;9.292;2023-04-15T05:57:04;6.80;;;4.40;;
39872;SDS011;63160;48.854;9.292;2023-04-15T05:59:30;8.10;;;5.13;;
39872;SDS011;63160;48.854;9.292;2023-04-15T06:01:58;6.13;;;4.03;;
39872;SDS011;63160;48.854;9.292;2023-04-15T06:04:25;5.80;;;4.57;;
39872;SDS011;63160;48.854;9.292;2023-04-15T06:06:51;6.32;;;4.55;;
39872;SDS011;63160;48.854;9.292;2023-04-15T06:09:18;7.10;;;4.45;;
39872;SDS011;63160;48.854;9.292;2023-04-15T06:11:45;6.07;;;4.10;;
39872;SDS011;63160;48.854;9.292;2023-04-15T06:14:12;5.90;;;4.25;;
39872;SDS011;63160;48.854;9.292;2023-04-15T06:16:39;6.68;;;6.07;;
39872;SDS011;63160;48.854;9.292;2023-04-15T06:19:06;6.45;;;4.32;;
39872;SDS011;63160;48.854;9.292;2023-04-15T06:21:33;5.95;;;4.15;;
39872;SDS011;63160;48.854;9.292;2023-04-15T06:24:00;4.43;;;3.47;;
39872;SDS011;63160;48.854;9.292;2023-04-15T06:26:26;7.63;;;6.80;;
39872;SDS011;63160;48.854;9.292;2023-04-15T06:28:54;5.05;;;4.25;;
39872;SDS011;63160;48.854;9.292;2023-04-15T06:31:21;6.28;;;4.30;;
39872;SDS011;63160;48.854;9.292;2023-04-15T06:33:48;5.78;;;4.78;;
39872;SDS011;63160;48.854;9.292;2023-04-15T06:36:15;4.35;;;3.33;;
39872;SDS011;63160;48.854;9.292;2023-04-15T06:38:41;5.70;;;4.45;;
39872;SDS011;63160;48.854;9.292;2023-04-15T06:41:08;5.85;;;4.68;;
39872;SDS011;63160;48.854;9.292;2023-04-15T06:43:35;6.22;;;5.40;;
39872;SDS011;63160;48.854;9.292;2023-04-15T06:46:02;6.25;;;4.43;;
39872;SDS011;63160;48.854;9.292;2023-04-15T06:48:30;6.10;;;3.60;;
39872;SDS011;63160;48.854;9.292;2023-04-15T06:50:56;6.18;;;3.90;;
39872;SDS011;63160;48.854;9.292;2023-04-15T06:53:24;7.60;;;4.63;;
39872;SDS011;63160;48.854;9.292;2023-04-15T06:55:53;6.82;;;5.93;;
39872;SDS011;63160;48.854;9.292;2023-04-15T06:58:20;5.22;;;4.05;;
39872;SDS011;63160;48.854;9.292;2023-04-15T07:00:47;7.13;;;4.38;;
39872;SDS011;63160;48.854;9.292;2023-04-15T07:03:14;6.38;;;5.78;;
39872;SDS011;63160;48.854;9.292;2023-04-15T07:05:41;5.63;;;4.25;;
39872;SDS011;63160;48.854;9.292;2023-04-15T07:08:08;8.32;;;4.85;;
39872;SDS011;63160;48.854;9.292;2023-04-15T07:10:35;5.97;;;4.10;;
39872;SDS011;63160;48.854;9.292;2023-04-15T07:13:02;5.50;;;4.03;;
39872;SDS011;63160;48.854;9.292;2023-04-15T07:15:29;7.30;;;4.47;;
39872;SDS011;63160;48.854;9.292;2023-04-15T07:17:56;6.70;;;4.80;;
39872;SDS011;63160;48.854;9.292;2023-04-15T07:20:23;4.85;;;3.97;;
39872;SDS011;63160;48.854;9.292;2023-04-15T07:22:50;5.45;;;3.95;;
39872;SDS011;63160;48.854;9.292;2023-04-15T07:25:17;5.47;;;4.28;;
39872;SDS011;63160;48.854;9.292;2023-04-15T07:27:44;5.75;;;3.78;;
39872;SDS011;63160;48.854;9.292;2023-04-15T07:30:14;6.35;;;4.25;;
39872;SDS011;63160;48.854;9.292;2023-04-15T07:32:47;5.13;;;4.00;;
39872;SDS011;63160;48.854;9.292;2023-04-15T07:35:14;8.25;;;6.82;;
39872;SDS011;63160;48.854;9.292;2023-04-15T07:37:41;7.20;;;4.05;;
39872;SDS011;63160;48.854;9.292;2023-04-15T07:40:08;7.72;;;4.28;;
39872;SDS011;63160;48.854;9.292;2023-04-15T07:42:36;6.07;;;4.28;;
39872;SDS011;63160;48.854;9.292;2023-04-15T07:45:06;4.93;;;3.17;;
39872;SDS011;63160;48.854;9.292;2023-04-15T07:47:33;5.80;;;3.47;;
39872;SDS011;63160;48.854;9.292;2023-04-15T07:50:00;5.15;;;4.65;;
39872;SDS011;63160;48.854;9.292;2023-04-15T07:52:27;7.05;;;4.22;;
39872;SDS011;63160;48.854;9.292;2023-04-15T07:54:54;5.68;;;4.15;;
39872;SDS011;63160;48.854;9.292;2023-04-15T07:57:21;5.95;;;4.00;;
39872;SDS011;63160;48.854;9.292;2023-04-15T07:59:48;6.03;;;5.28;;
39872;SDS011;63160;48.854;9.292;2023-04-15T08:02:15;5.93;;;3.83;;
39872;SDS011;63160;48.854;9.292;2023-04-15T08:04:42;5.55;;;3.80;;
39872;SDS011;63160;48.854;9.292;2023-04-15T08:07:09;6.28;;;3.75;;
39872;SDS011;63160;48.854;9.292;2023-04-15T08:09:36;7.22;;;4.25;;
39872;SDS011;63160;48.854;9.292;2023-04-15T08:12:03;7.68;;;3.83;;
39872;SDS011;63160;48.854;9.292;2023-04-15T08:14:30;4.25;;;3.85;;
39872;SDS011;63160;48.854;9.292;2023-04-15T08:16:57;6.28;;;3.78;;
39872;SDS011;63160;48.854;9.292;2023-04-15T08:19:24;6.80;;;4.55;;
39872;SDS011;63160;48.854;9.292;2023-04-15T08:21:51;5.22;;;4.05;;
39872;SDS011;63160;48.854;9.292;2023-04-15T08:24:17;5.88;;;4.47;;
39872;SDS011;63160;48.854;9.292;2023-04-15T08:26:45;7.60;;;4.22;;
39872;SDS011;63160;48.854;9.292;2023-04-15T08:29:12;8.18;;;4.68;;
39872;SDS011;63160;48.854;9.292;2023-04-15T08:31:39;8.75;;;4.93;;
39872;SDS011;63160;48.854;9.292;2023-04-15T08:34:06;5.50;;;3.60;;
39872;SDS011;63160;48.854;9.292;2023-04-15T08:36:33;9.13;;;5.05;;
39872;SDS011;63160;48.854;9.292;2023-04-15T08:39:00;6.50;;;4.35;;
39872;SDS011;63160;48.854;9.292;2023-04-15T08:41:28;4.97;;;4.45;;
39872;SDS011;63160;48.854;9.292;2023-04-15T08:44:03;5.30;;;3.85;;
39872;SDS011;63160;48.854;9.292;2023-04-15T08:46:30;4.53;;;3.38;;
39872;SDS011;63160;48.854;9.292;2023-04-15T08:49:02;5.63;;;3.55;;
39872;SDS011;63160;48.854;9.292;2023-04-15T08:51:30;5.90;;;3.40;;
39872;SDS011;63160;48.854;9.292;2023-04-15T08:53:57;4.93;;;2.92;;
39872;SDS011;63160;48.854;9.292;2023-04-15T08:56:25;4.72;;;2.83;;
39872;SDS011;63160;48.854;9.292;2023-04-15T08:58:54;5.38;;;3.63;;
39872;SDS011;63160;48.854;9.292;2023-04-15T09:01:22;3.58;;;2.85;;
39872;SDS011;63160;48.854;9.292;2023-04-15T09:03:48;5.38;;;3.75;;
39872;SDS011;63160;48.854;9.292;2023-04-15T09:06:16;6.20;;;4.45;;
39872;SDS011;63160;48.854;9.292;2023-04-15T09:08:43;7.25;;;4.53;;
39872;SDS011;63160;48.854;9.292;2023-04-15T09:11:10;5.38;;;3.33;;
39872;SDS011;63160;48.854;9.292;2023-04-15T09:13:37;6.43;;;4.47;;
39872;SDS011;63160;48.854;9.292;2023-04-15T09:16:05;6.28;;;5.22;;
39872;SDS011;63160;48.854;9.292;2023-04-15T09:18:33;6.22;;;3.75;;
39872;SDS011;63160;48.854;9.292;2023-04-15T09:21:04;4.60;;;3.40;;
39872;SDS011;63160;48.854;9.292;2023-04-15T09:26:17;8.20;;;3.60;;
39872;SDS011;63160;48.854;9.292;2023-04-15T09:28:44;5.70;;;5.10;;
39872;SDS011;63160;48.854;9.292;2023-04-15T09:31:11;7.68;;;5.38;;
39872;SDS011;63160;48.854;9.292;2023-04-15T09:33:52;6.80;;;3.60;;
39872;SDS011;63160;48.854;9.292;2023-04-15T09:36:21;6.57;;;3.85;;
39872;SDS011;63160;48.854;9.292;2023-04-15T09:38:57;5.00;;;3.95;;
39872;SDS011;63160;48.854;9.292;2023-04-15T09:41:26;7.43;;;3.92;;
39872;SDS011;63160;48.854;9.292;2023-04-15T09:43:53;6.22;;;3.85;;
39872;SDS011;63160;48.854;9.292;2023-04-15T09:46:25;4.78;;;4.07;;
39872;SDS011;63160;48.854;9.292;2023-04-15T09:49:07;5.25;;;3.55;;
39872;SDS011;63160;48.854;9.292;2023-04-15T09:51:34;5.28;;;3.67;;
39872;SDS011;63160;48.854;9.292;2023-04-15T09:54:02;4.90;;;3.60;;
39872;SDS011;63160;48.854;9.292;2023-04-15T09:56:35;5.10;;;3.70;;
39872;SDS011;63160;48.854;9.292;2023-04-15T09:59:04;7.05;;;4.10;;
39872;SDS011;63160;48.854;9.292;2023-04-15T10:01:31;5.05;;;3.08;;
39872;SDS011;63160;48.854;9.292;2023-04-15T10:04:04;3.80;;;3.45;;
39872;SDS011;63160;48.854;9.292;2023-04-15T10:06:32;5.82;;;3.78;;
39872;SDS011;63160;48.854;9.292;2023-04-15T10:08:59;5.50;;;2.53;;
39872;SDS011;63160;48.854;9.292;2023-04-15T10:11:29;4.30;;;2.78;;
39872;SDS011;63160;48.854;9.292;2023-04-15T10:13:57;4.38;;;2.78;;
39872;SDS011;63160;48.854;9.292;2023-04-15T10:16:25;5.60;;;2.80;;
39872;SDS011;63160;48.854;9.292;2023-04-15T10:18:54;4.47;;;2.47;;
39872;SDS011;63160;48.854;9.292;2023-04-15T10:21:21;3.22;;;2.38;;
39872;SDS011;63160;48.854;9.292;2023-04-15T10:23:49;4.32;;;2.60;;
39872;SDS011;63160;48.854;9.292;2023-04-15T10:26:16;4.13;;;2.20;;
39872;SDS011;63160;48.854;9.292;2023-04-15T10:28:43;4.72;;;4.07;;
39872;SDS011;63160;48.854;9.292;2023-04-15T10:31:12;3.92;;;2.65;;
39872;SDS011;63160;48.854;9.292;2023-04-15T10:33:40;4.30;;;2.55;;
39872;SDS011;63160;48.854;9.292;2023-04-15T10:36:08;3.60;;;2.05;;
39872;SDS011;63160;48.854;9.292;2023-04-15T10:38:39;2.92;;;2.30;;
39872;SDS011;63160;48.854;9.292;2023-04-15T10:43:45;3.47;;;2.90;;
39872;SDS011;63160;48.854;9.292;2023-04-15T10:46:19;3.67;;;2.20;;
39872;SDS011;63160;48.854;9.292;2023-04-15T10:48:47;4.10;;;1.85;;
39872;SDS011;63160;48.854;9.292;2023-04-15T10:51:28;3.22;;;2.15;;
39872;SDS011;63160;48.854;9.292;2023-04-15T10:53:56;4.30;;;3.05;;
39872;SDS011;63160;48.854;9.292;2023-04-15T10:56:29;5.18;;;2.25;;
39872;SDS011;63160;48.854;9.292;2023-04-15T10:58:59;5.05;;;2.90;;
39872;SDS011;63160;48.854;9.292;2023-04-15T11:02:11;3.45;;;2.15;;
39872;SDS011;63160;48.854;9.292;2023-04-15T11:07:36;5.20;;;2.72;;
39872;SDS011;63160;48.854;9.292;2023-04-15T11:12:39;3.47;;;2.47;;
39872;SDS011;63160;48.854;9.292;2023-04-15T11:15:54;4.35;;;2.83;;
39872;SDS011;63160;48.854;9.292;2023-04-15T11:20:36;4.97;;;2.67;;
39872;SDS011;63160;48.854;9.292;2023-04-15T11:23:03;4.70;;;3.05;;
39872;SDS011;63160;48.854;9.292;2023-04-15T11:25:40;4.30;;;3.40;;
39872;SDS011;63160;48.854;9.292;2023-04-15T11:28:09;6.15;;;3.13;;
39872;SDS011;63160;48.854;9.292;2023-04-15T11:30:37;5.18;;;2.78;;
39872;SDS011;63160;48.854;9.292;2023-04-15T11:33:05;4.32;;;3.08;;
39872;SDS011;63160;48.854;9.292;2023-04-15T11:35:34;5.40;;;3.40;;
39872;SDS011;63160;48.854;9.292;2023-04-15T11:38:02;5.20;;;4.22;;
39872;SDS011;63160;48.854;9.292;2023-04-15T11:40:30;7.13;;;3.50;;
39872;SDS011;63160;48.854;9.292;2023-04-15T11:45:32;4.13;;;2.75;;
39872;SDS011;63160;48.854;9.292;2023-04-15T11:48:04;4.93;;;3.45;;
39872;SDS011;63160;48.854;9.292;2023-04-15T11:50:32;4.22;;;2.85;;
39872;SDS011;63160;48.854;9.292;2023-04-15T11:53:01;4.55;;;3.08;;
39872;SDS011;63160;48.854;9.292;2023-04-15T11:55:47;7.10;;;3.20;;
39872;SDS011;63160;48.854;9.292;2023-04-15T11:58:19;4.07;;;2.90;;
39872;SDS011;63160;48.854;9.292;2023-04-15T12:00:57;4.50;;;4.10;;
39872;SDS011;63160;48.854;9.292;2023-04-15T12:11:16;4.80;;;2.65;;
39872;SDS011;63160;48.854;9.292;2023-04-15T12:13:43;3.85;;;3.20;;
39872;SDS011;63160;48.854;9.292;2023-04-15T12:16:12;3.10;;;2.33;;
39872;SDS011;63160;48.854;9.292;2023-04-15T12:18:39;3.63;;;2.58;;
39872;SDS011;63160;48.854;9.292;2023-04-15T12:21:09;2.97;;;2.28;;
39872;SDS011;63160;48.854;9.292;2023-04-15T12:23:37;3.78;;;3.00;;
39872;SDS011;63160;48.854;9.292;2023-04-15T12:26:04;4.40;;;2.90;;
39872;SDS011;63160;48.854;9.292;2023-04-15T12:28:33;3.70;;;2.83;;
39872;SDS011;63160;48.854;9.292;2023-04-15T12:31:08;3.45;;;3.15;;
39872;SDS011;63160;48.854;9.292;2023-04-15T12:33:36;4.50;;;3.03;;
39872;SDS011;63160;48.854;9.292;2023-04-15T12:36:06;6.75;;;3.42;;
39872;SDS011;63160;48.854;9.292;2023-04-15T12:38:33;5.13;;;3.55;;
39872;SDS011;63160;48.854;9.292;2023-04-15T12:41:00;5.60;;;3.67;;
39872;SDS011;63160;48.854;9.292;2023-04-15T12:43:27;5.00;;;3.33;;
39872;SDS011;63160;48.854;9.292;2023-04-15T12:45:54;2.92;;;2.25;;
39872;SDS011;63160;48.854;9.292;2023-04-15T12:48:21;4.03;;;3.70;;
39872;SDS011;63160;48.854;9.292;2023-04-15T12:50:47;2.88;;;2.03;;
39872;SDS011;63160;48.854;9.292;2023-04-15T12:53:14;2.50;;;1.95;;
39872;SDS011;63160;48.854;9.292;2023-04-15T12:55:41;4.00;;;1.70;;
39872;SDS011;63160;48.854;9.292;2023-04-15T12:58:08;2.95;;;1.98;;
39872;SDS011;63160;48.854;9.292;2023-04-15T13:00:36;2.20;;;1.95;;
39872;SDS011;63160;48.854;9.292;2023-04-15T13:03:05;4.90;;;1.88;;
39872;SDS011;63160;48.854;9.292;2023-04-15T13:05:32;3.10;;;1.95;;
39872;SDS011;63160;48.854;9.292;2023-04-15T13:07:59;3.78;;;2.33;;
39872;SDS011;63160;48.854;9.292;2023-04-15T13:10:29;4.75;;;1.98;;
39872;SDS011;63160;48.854;9.292;2023-04-15T13:12:57;3.35;;;2.13;;
39872;SDS011;63160;48.854;9.292;2023-04-15T13:15:24;2.15;;;1.85;;
39872;SDS011;63160;48.854;9.292;2023-04-15T13:17:51;2.00;;;1.80;;
39872;SDS011;63160;48.854;9.292;2023-04-15T13:20:18;3.22;;;3.00;;
39872;SDS011;63160;48.854;9.292;2023-04-15T13:22:45;3.20;;;1.52;;
39872;SDS011;63160;48.854;9.292;2023-04-15T13:25:12;2.75;;;1.42;;
39872;SDS011;63160;48.854;9.292;2023-04-15T13:27:39;1.55;;;1.45;;
39872;SDS011;63160;48.854;9.292;2023-04-15T13:30:06;2.60;;;1.77;;
39872;SDS011;63160;48.854;9.292;2023-04-15T13:32:33;1.70;;;1.48;;
39872;SDS011;63160;48.854;9.292;2023-04-15T13:35:01;4.28;;;1.58;;
39872;SDS011;63160;48.854;9.292;2023-04-15T13:37:28;1.67;;;1.58;;
39872;SDS011;63160;48.854;9.292;2023-04-15T13:39:55;2.47;;;1.40;;
39872;SDS011;63160;48.854;9.292;2023-04-15T13:42:22;1.90;;;1.80;;
39872;SDS011;63160;48.854;9.292;2023-04-15T13:44:50;4.95;;;1.63;;
39872;SDS011;63160;48.854;9.292;2023-04-15T13:47:19;1.10;;;0.93;;
39872;SDS011;63160;48.854;9.292;2023-04-15T13:49:46;1.33;;;0.88;;
39872;SDS011;63160;48.854;9.292;2023-04-15T13:52:13;2.13;;;1.08;;
39872;SDS011;63160;48.854;9.292;2023-04-15T13:54:40;2.00;;;0.95;;
39872;SDS011;63160;48.854;9.292;2023-04-15T13:57:07;2.10;;;1.10;;
39872;SDS011;63160;48.854;9.292;2023-04-15T13:59:33;3.80;;;1.90;;
39872;SDS011;63160;48.854;9.292;2023-04-15T14:02:01;1.77;;;1.15;;
39872;SDS011;63160;48.854;9.292;2023-04-15T14:04:29;2.00;;;1.42;;
39872;SDS011;63160;48.854;9.292;2023-04-15T14:06:57;1.85;;;1.13;;
39872;SDS011;63160;48.854;9.292;2023-04-15T14:09:23;1.98;;;0.98;;
39872;SDS011;63160;48.854;9.292;2023-04-15T14:11:53;0.80;;;0.60;;
39872;SDS011;63160;48.854;9.292;2023-04-15T14:14:19;1.42;;;1.10;;
39872;SDS011;63160;48.854;9.292;2023-04-15T14:16:46;1.25;;;0.85;;
39872;SDS011;63160;48.854;9.292;2023-04-15T14:19:13;2.35;;;1.88;;
39872;SDS011;63160;48.854;9.292;2023-04-15T14:21:40;2.17;;;0.82;;
39872;SDS011;63160;48.854;9.292;2023-04-15T14:24:07;1.80;;;1.30;;
39872;SDS011;63160;48.854;9.292;2023-04-15T14:26:34;3.25;;;1.13;;
39872;SDS011;63160;48.854;9.292;2023-04-15T14:29:00;2.08;;;1.88;;
39872;SDS011;63160;48.854;9.292;2023-04-15T14:31:28;3.08;;;1.23;;
39872;SDS011;63160;48.854;9.292;2023-04-15T14:33:54;1.83;;;0.95;;
39872;SDS011;63160;48.854;9.292;2023-04-15T14:36:21;1.10;;;0.70;;
39872;SDS011;63160;48.854;9.292;2023-04-15T14:38:48;2.20;;;2.10;;
39872;SDS011;63160;48.854;9.292;2023-04-15T14:41:15;2.00;;;1.30;;
39872;SDS011;63160;48.854;9.292;2023-04-15T14:43:42;1.75;;;1.15;;
39872;SDS011;63160;48.854;9.292;2023-04-15T14:46:09;1.90;;;1.75;;
39872;SDS011;63160;48.854;9.292;2023-04-15T14:48:36;5.75;;;4.03;;
39872;SDS011;63160;48.854;9.292;2023-04-15T14:51:03;8.30;;;7.53;;
39872;SDS011;63160;48.854;9.292;2023-04-15T14:53:30;5.75;;;4.32;;
39872;SDS011;63160;48.854;9.292;2023-04-15T14:55:57;17.88;;;12.05;;
39872;SDS011;63160;48.854;9.292;2023-04-15T14:58:24;6.28;;;4.47;;
39872;SDS011;63160;48.854;9.292;2023-04-15T15:00:50;35.25;;;28.85;;
39872;SDS011;63160;48.854;9.292;2023-04-15T15:03:17;58.83;;;46.65;;
39872;SDS011;63160;48.854;9.292;2023-04-15T15:05:44;48.35;;;43.42;;
39872;SDS011;63160;48.854;9.292;2023-04-15T15:08:12;6.15;;;4.13;;
39872;SDS011;63160;48.854;9.292;2023-04-15T15:10:39;8.88;;;7.45;;
39872;SDS011;63160;48.854;9.292;2023-04-15T15:13:15;3.20;;;3.00;;
39872;SDS011;63160;48.854;9.292;2023-04-15T15:15:42;5.85;;;5.43;;